sensor_id;sensor_type;location;lat;lon;timestamp;P1;durP1;ratioP1;P2;durP2;ratioP2
11305;SDS011;5708;50.660;6.778;2024-03-07T00:01:20;48.35;;;28.17;;
11305;SDS011;5708;50.660;6.778;2024-03-07T00:03:45;47.28;;;28.33;;
11305;SDS011;5708;50.660;6.778;2024-03-07T00:06:11;49.20;;;29.15;;
11305;SDS011;5708;50.660;6.778;2024-03-07T00:08:36;51.00;;;28.17;;
11305;SDS011;5708;50.660;6.778;2024-03-07T00:11:02;54.83;;;30.10;;
11305;SDS011;5708;50.660;6.778;2024-03-07T00:13:27;50.78;;;29.17;;
11305;SDS011;5708;50.660;6.778;2024-03-07T00:15:52;59.10;;;31.55;;
11305;SDS011;5708;50.660;6.778;2024-03-07T00:18:18;56.53;;;31.25;;
11305;SDS011;5708;50.660;6.778;2024-03-07T00:20:44;59.13;;;31.83;;
11305;SDS011;5708;50.660;6.778;2024-03-07T00:23:09;58.25;;;31.40;;
11305;SDS011;5708;50.660;6.778;2024-03-07T00:25:34;58.17;;;31.33;;
11305;SDS011;5708;50.660;6.778;2024-03-07T00:28:00;58.53;;;31.70;;
11305;SDS011;5708;50.660;6.778;2024-03-07T00:30:28;62.25;;;33.35;;
11305;SDS011;5708;50.660;6.778;2024-03-07T00:32:57;65.68;;;34.65;;
11305;SDS011;5708;50.660;6.778;2024-03-07T00:35:22;60.22;;;32.97;;
11305;SDS011;5708;50.660;6.778;2024-03-07T00:37:48;60.25;;;33.83;;
11305;SDS011;5708;50.660;6.778;2024-03-07T00:40:14;64.05;;;33.88;;
11305;SDS011;5708;50.660;6.778;2024-03-07T00:42:39;66.03;;;36.50;;
11305;SDS011;5708;50.660;6.778;2024-03-07T00:45:05;63.95;;;34.80;;
11305;SDS011;5708;50.660;6.778;2024-03-07T00:47:31;72.50;;;36.78;;
11305;SDS011;5708;50.660;6.778;2024-03-07T00:49:59;66.75;;;36.35;;
11305;SDS011;5708;50.660;6.778;2024-03-07T00:52:25;73.72;;;36.78;;
11305;SDS011;5708;50.660;6.778;2024-03-07T00:54:50;70.97;;;36.88;;
11305;SDS011;5708;50.660;6.778;2024-03-07T00:57:16;70.53;;;36.63;;
11305;SDS011;5708;50.660;6.778;2024-03-07T00:59:42;73.13;;;36.85;;
11305;SDS011;5708;50.660;6.778;2024-03-07T01:02:07;71.57;;;34.90;;
11305;SDS011;5708;50.660;6.778;2024-03-07T01:04:32;67.03;;;35.65;;
11305;SDS011;5708;50.660;6.778;2024-03-07T01:06:58;72.00;;;36.83;;
11305;SDS011;5708;50.660;6.778;2024-03-07T01:09:24;69.75;;;35.88;;
11305;SDS011;5708;50.660;6.778;2024-03-07T01:11:50;73.53;;;37.22;;
11305;SDS011;5708;50.660;6.778;2024-03-07T01:14:15;63.10;;;33.63;;
11305;SDS011;5708;50.660;6.778;2024-03-07T01:16:40;73.10;;;37.03;;
11305;SDS011;5708;50.660;6.778;2024-03-07T01:19:06;70.75;;;36.05;;
11305;SDS011;5708;50.660;6.778;2024-03-07T01:21:35;66.88;;;35.10;;
11305;SDS011;5708;50.660;6.778;2024-03-07T01:24:01;79.22;;;36.42;;
11305;SDS011;5708;50.660;6.778;2024-03-07T01:26:30;69.80;;;36.25;;
11305;SDS011;5708;50.660;6.778;2024-03-07T01:28:56;70.90;;;36.03;;
11305;SDS011;5708;50.660;6.778;2024-03-07T01:31:23;72.97;;;36.47;;
11305;SDS011;5708;50.660;6.778;2024-03-07T01:33:48;69.00;;;34.85;;
11305;SDS011;5708;50.660;6.778;2024-03-07T01:36:14;69.65;;;33.88;;
11305;SDS011;5708;50.660;6.778;2024-03-07T01:38:39;72.70;;;36.05;;
11305;SDS011;5708;50.660;6.778;2024-03-07T01:41:05;75.03;;;37.10;;
11305;SDS011;5708;50.660;6.778;2024-03-07T01:43:30;69.82;;;35.60;;
11305;SDS011;5708;50.660;6.778;2024-03-07T01:45:56;67.10;;;35.60;;
11305;SDS011;5708;50.660;6.778;2024-03-07T01:48:26;72.90;;;35.33;;
11305;SDS011;5708;50.660;6.778;2024-03-07T01:50:54;66.90;;;33.47;;
11305;SDS011;5708;50.660;6.778;2024-03-07T01:53:20;68.57;;;34.70;;
11305;SDS011;5708;50.660;6.778;2024-03-07T01:55:46;66.32;;;31.40;;
11305;SDS011;5708;50.660;6.778;2024-03-07T01:58:12;69.32;;;34.63;;
11305;SDS011;5708;50.660;6.778;2024-03-07T02:00:39;65.65;;;32.50;;
11305;SDS011;5708;50.660;6.778;2024-03-07T02:03:04;67.65;;;33.80;;
11305;SDS011;5708;50.660;6.778;2024-03-07T02:05:32;69.57;;;33.85;;
11305;SDS011;5708;50.660;6.778;2024-03-07T02:07:58;63.92;;;33.90;;
11305;SDS011;5708;50.660;6.778;2024-03-07T02:10:24;63.58;;;33.50;;
11305;SDS011;5708;50.660;6.778;2024-03-07T02:12:50;60.95;;;31.15;;
11305;SDS011;5708;50.660;6.778;2024-03-07T02:15:16;65.50;;;32.13;;
11305;SDS011;5708;50.660;6.778;2024-03-07T02:17:41;63.28;;;31.65;;
11305;SDS011;5708;50.660;6.778;2024-03-07T02:20:08;62.60;;;31.70;;
11305;SDS011;5708;50.660;6.778;2024-03-07T02:22:35;68.65;;;31.95;;
11305;SDS011;5708;50.660;6.778;2024-03-07T02:25:01;64.15;;;31.17;;
11305;SDS011;5708;50.660;6.778;2024-03-07T02:27:26;65.35;;;32.40;;
11305;SDS011;5708;50.660;6.778;2024-03-07T02:29:52;63.03;;;31.73;;
11305;SDS011;5708;50.660;6.778;2024-03-07T02:32:17;63.67;;;31.05;;
11305;SDS011;5708;50.660;6.778;2024-03-07T02:34:43;64.60;;;31.75;;
11305;SDS011;5708;50.660;6.778;2024-03-07T02:37:08;64.05;;;30.70;;
11305;SDS011;5708;50.660;6.778;2024-03-07T02:39:35;61.08;;;30.80;;
11305;SDS011;5708;50.660;6.778;2024-03-07T02:42:03;65.88;;;30.95;;
11305;SDS011;5708;50.660;6.778;2024-03-07T02:44:29;63.15;;;31.77;;
11305;SDS011;5708;50.660;6.778;2024-03-07T02:46:55;63.83;;;31.27;;
11305;SDS011;5708;50.660;6.778;2024-03-07T02:49:21;61.95;;;32.08;;
11305;SDS011;5708;50.660;6.778;2024-03-07T02:51:46;66.35;;;32.08;;
11305;SDS011;5708;50.660;6.778;2024-03-07T02:54:12;64.25;;;31.27;;
11305;SDS011;5708;50.660;6.778;2024-03-07T02:56:37;63.13;;;30.77;;
11305;SDS011;5708;50.660;6.778;2024-03-07T02:59:03;62.78;;;30.83;;
11305;SDS011;5708;50.660;6.778;2024-03-07T03:01:28;60.92;;;30.60;;
11305;SDS011;5708;50.660;6.778;2024-03-07T03:03:54;68.97;;;33.05;;
11305;SDS011;5708;50.660;6.778;2024-03-07T03:06:19;64.40;;;30.95;;
11305;SDS011;5708;50.660;6.778;2024-03-07T03:08:45;63.40;;;31.08;;
11305;SDS011;5708;50.660;6.778;2024-03-07T03:11:11;66.13;;;33.17;;
11305;SDS011;5708;50.660;6.778;2024-03-07T03:13:38;68.18;;;32.90;;
11305;SDS011;5708;50.660;6.778;2024-03-07T03:16:07;62.97;;;32.17;;
11305;SDS011;5708;50.660;6.778;2024-03-07T03:18:33;65.78;;;33.05;;
11305;SDS011;5708;50.660;6.778;2024-03-07T03:20:59;64.75;;;30.65;;
11305;SDS011;5708;50.660;6.778;2024-03-07T03:23:27;64.25;;;30.95;;
11305;SDS011;5708;50.660;6.778;2024-03-07T03:25:53;61.78;;;31.00;;
11305;SDS011;5708;50.660;6.778;2024-03-07T03:28:20;59.50;;;29.83;;
11305;SDS011;5708;50.660;6.778;2024-03-07T03:30:45;65.80;;;30.17;;
11305;SDS011;5708;50.660;6.778;2024-03-07T03:33:12;61.28;;;29.88;;
11305;SDS011;5708;50.660;6.778;2024-03-07T03:35:37;61.80;;;30.52;;
11305;SDS011;5708;50.660;6.778;2024-03-07T03:38:03;62.28;;;30.38;;
11305;SDS011;5708;50.660;6.778;2024-03-07T03:40:28;61.38;;;28.63;;
11305;SDS011;5708;50.660;6.778;2024-03-07T03:42:53;61.58;;;29.75;;
11305;SDS011;5708;50.660;6.778;2024-03-07T03:45:19;59.75;;;29.88;;
11305;SDS011;5708;50.660;6.778;2024-03-07T03:47:45;59.70;;;28.73;;
11305;SDS011;5708;50.660;6.778;2024-03-07T03:50:11;67.28;;;31.48;;
11305;SDS011;5708;50.660;6.778;2024-03-07T03:52:37;65.10;;;30.17;;
11305;SDS011;5708;50.660;6.778;2024-03-07T03:55:04;60.97;;;29.33;;
11305;SDS011;5708;50.660;6.778;2024-03-07T03:57:30;62.15;;;29.33;;
11305;SDS011;5708;50.660;6.778;2024-03-07T03:59:56;63.80;;;28.45;;
11305;SDS011;5708;50.660;6.778;2024-03-07T04:02:22;59.90;;;28.73;;
11305;SDS011;5708;50.660;6.778;2024-03-07T04:04:48;62.65;;;28.35;;
11305;SDS011;5708;50.660;6.778;2024-03-07T04:07:18;65.85;;;29.10;;
11305;SDS011;5708;50.660;6.778;2024-03-07T04:09:45;64.85;;;29.25;;
11305;SDS011;5708;50.660;6.778;2024-03-07T04:12:10;61.22;;;28.52;;
11305;SDS011;5708;50.660;6.778;2024-03-07T04:14:37;60.28;;;27.90;;
11305;SDS011;5708;50.660;6.778;2024-03-07T04:17:04;60.05;;;27.67;;
11305;SDS011;5708;50.660;6.778;2024-03-07T04:19:31;63.03;;;27.25;;
11305;SDS011;5708;50.660;6.778;2024-03-07T04:21:58;60.67;;;27.20;;
11305;SDS011;5708;50.660;6.778;2024-03-07T04:24:23;66.13;;;30.45;;
11305;SDS011;5708;50.660;6.778;2024-03-07T04:26:48;62.58;;;29.48;;
11305;SDS011;5708;50.660;6.778;2024-03-07T04:29:14;63.40;;;29.15;;
11305;SDS011;5708;50.660;6.778;2024-03-07T04:31:39;63.08;;;28.70;;
11305;SDS011;5708;50.660;6.778;2024-03-07T04:34:08;60.47;;;26.48;;
11305;SDS011;5708;50.660;6.778;2024-03-07T04:36:34;62.80;;;28.35;;
11305;SDS011;5708;50.660;6.778;2024-03-07T04:39:00;58.00;;;27.42;;
11305;SDS011;5708;50.660;6.778;2024-03-07T04:41:25;60.08;;;26.15;;
11305;SDS011;5708;50.660;6.778;2024-03-07T04:43:50;58.03;;;26.55;;
11305;SDS011;5708;50.660;6.778;2024-03-07T04:46:16;58.35;;;27.20;;
11305;SDS011;5708;50.660;6.778;2024-03-07T04:48:42;56.20;;;26.73;;
11305;SDS011;5708;50.660;6.778;2024-03-07T04:51:07;58.08;;;26.77;;
11305;SDS011;5708;50.660;6.778;2024-03-07T04:53:33;53.53;;;26.23;;
11305;SDS011;5708;50.660;6.778;2024-03-07T04:56:02;59.08;;;26.33;;
11305;SDS011;5708;50.660;6.778;2024-03-07T04:58:27;59.47;;;26.55;;
11305;SDS011;5708;50.660;6.778;2024-03-07T05:00:53;56.70;;;26.00;;
11305;SDS011;5708;50.660;6.778;2024-03-07T05:03:18;56.63;;;26.55;;
11305;SDS011;5708;50.660;6.778;2024-03-07T05:05:44;57.47;;;26.75;;
11305;SDS011;5708;50.660;6.778;2024-03-07T05:08:09;56.97;;;26.17;;
11305;SDS011;5708;50.660;6.778;2024-03-07T05:10:35;59.00;;;26.60;;
11305;SDS011;5708;50.660;6.778;2024-03-07T05:13:01;58.40;;;25.88;;
11305;SDS011;5708;50.660;6.778;2024-03-07T05:15:26;58.90;;;27.08;;
11305;SDS011;5708;50.660;6.778;2024-03-07T05:17:52;59.97;;;26.75;;
11305;SDS011;5708;50.660;6.778;2024-03-07T05:20:17;62.63;;;28.25;;
11305;SDS011;5708;50.660;6.778;2024-03-07T05:22:43;61.53;;;27.48;;
11305;SDS011;5708;50.660;6.778;2024-03-07T05:25:17;56.70;;;26.77;;
11305;SDS011;5708;50.660;6.778;2024-03-07T05:27:44;58.53;;;26.67;;
11305;SDS011;5708;50.660;6.778;2024-03-07T05:30:15;59.10;;;26.33;;
11305;SDS011;5708;50.660;6.778;2024-03-07T05:32:40;64.07;;;26.92;;
11305;SDS011;5708;50.660;6.778;2024-03-07T05:35:06;51.38;;;25.40;;
11305;SDS011;5708;50.660;6.778;2024-03-07T05:37:32;57.60;;;26.73;;
11305;SDS011;5708;50.660;6.778;2024-03-07T05:39:57;59.60;;;26.70;;
11305;SDS011;5708;50.660;6.778;2024-03-07T05:42:23;52.45;;;25.10;;
11305;SDS011;5708;50.660;6.778;2024-03-07T05:44:50;56.10;;;26.38;;
11305;SDS011;5708;50.660;6.778;2024-03-07T05:47:15;57.33;;;26.58;;
11305;SDS011;5708;50.660;6.778;2024-03-07T05:49:42;54.33;;;25.20;;
11305;SDS011;5708;50.660;6.778;2024-03-07T05:52:07;55.75;;;26.65;;
11305;SDS011;5708;50.660;6.778;2024-03-07T05:54:32;58.45;;;25.52;;
11305;SDS011;5708;50.660;6.778;2024-03-07T05:56:58;56.00;;;26.88;;
11305;SDS011;5708;50.660;6.778;2024-03-07T05:59:23;59.33;;;26.20;;
11305;SDS011;5708;50.660;6.778;2024-03-07T06:01:49;51.22;;;24.45;;
11305;SDS011;5708;50.660;6.778;2024-03-07T06:04:16;52.00;;;25.55;;
11305;SDS011;5708;50.660;6.778;2024-03-07T06:06:41;57.33;;;26.02;;
11305;SDS011;5708;50.660;6.778;2024-03-07T06:09:10;54.28;;;25.80;;
11305;SDS011;5708;50.660;6.778;2024-03-07T06:11:36;55.78;;;24.77;;
11305;SDS011;5708;50.660;6.778;2024-03-07T06:14:02;58.58;;;26.40;;
11305;SDS011;5708;50.660;6.778;2024-03-07T06:16:31;56.40;;;25.15;;
11305;SDS011;5708;50.660;6.778;2024-03-07T06:19:03;58.65;;;27.48;;
11305;SDS011;5708;50.660;6.778;2024-03-07T06:21:29;55.13;;;26.00;;
11305;SDS011;5708;50.660;6.778;2024-03-07T06:23:58;59.85;;;26.08;;
11305;SDS011;5708;50.660;6.778;2024-03-07T06:26:28;58.47;;;26.45;;
11305;SDS011;5708;50.660;6.778;2024-03-07T06:29:06;53.95;;;25.48;;
11305;SDS011;5708;50.660;6.778;2024-03-07T06:31:33;56.30;;;26.60;;
11305;SDS011;5708;50.660;6.778;2024-03-07T06:33:59;61.53;;;27.52;;
11305;SDS011;5708;50.660;6.778;2024-03-07T06:36:25;62.00;;;27.20;;
11305;SDS011;5708;50.660;6.778;2024-03-07T06:38:50;55.80;;;25.02;;
11305;SDS011;5708;50.660;6.778;2024-03-07T06:41:16;59.50;;;26.27;;
11305;SDS011;5708;50.660;6.778;2024-03-07T06:43:43;58.92;;;25.60;;
11305;SDS011;5708;50.660;6.778;2024-03-07T06:46:09;61.33;;;25.00;;
11305;SDS011;5708;50.660;6.778;2024-03-07T06:48:35;54.45;;;25.77;;
11305;SDS011;5708;50.660;6.778;2024-03-07T06:51:00;58.17;;;25.23;;
11305;SDS011;5708;50.660;6.778;2024-03-07T06:53:25;62.60;;;27.58;;
11305;SDS011;5708;50.660;6.778;2024-03-07T06:55:52;53.80;;;25.60;;
11305;SDS011;5708;50.660;6.778;2024-03-07T06:58:19;55.60;;;25.40;;
11305;SDS011;5708;50.660;6.778;2024-03-07T07:00:45;60.28;;;26.38;;
11305;SDS011;5708;50.660;6.778;2024-03-07T07:03:10;61.65;;;25.92;;
11305;SDS011;5708;50.660;6.778;2024-03-07T07:05:37;59.25;;;26.58;;
11305;SDS011;5708;50.660;6.778;2024-03-07T07:08:05;62.72;;;27.27;;
11305;SDS011;5708;50.660;6.778;2024-03-07T07:10:31;59.60;;;25.80;;
11305;SDS011;5708;50.660;6.778;2024-03-07T07:12:57;58.13;;;25.50;;
11305;SDS011;5708;50.660;6.778;2024-03-07T07:15:22;54.60;;;25.90;;
11305;SDS011;5708;50.660;6.778;2024-03-07T07:17:48;56.20;;;26.45;;
11305;SDS011;5708;50.660;6.778;2024-03-07T07:20:17;58.05;;;26.52;;
11305;SDS011;5708;50.660;6.778;2024-03-07T07:22:43;59.60;;;27.67;;
11305;SDS011;5708;50.660;6.778;2024-03-07T07:25:11;57.63;;;25.70;;
11305;SDS011;5708;50.660;6.778;2024-03-07T07:27:48;52.80;;;25.65;;
11305;SDS011;5708;50.660;6.778;2024-03-07T07:30:15;60.83;;;27.13;;
11305;SDS011;5708;50.660;6.778;2024-03-07T07:32:42;62.47;;;27.75;;
11305;SDS011;5708;50.660;6.778;2024-03-07T07:35:09;58.13;;;28.20;;
11305;SDS011;5708;50.660;6.778;2024-03-07T07:37:42;60.03;;;28.70;;
11305;SDS011;5708;50.660;6.778;2024-03-07T07:40:09;55.30;;;26.20;;
11305;SDS011;5708;50.660;6.778;2024-03-07T07:42:42;59.90;;;27.65;;
11305;SDS011;5708;50.660;6.778;2024-03-07T07:45:08;58.15;;;26.17;;
11305;SDS011;5708;50.660;6.778;2024-03-07T07:47:47;60.03;;;26.80;;
11305;SDS011;5708;50.660;6.778;2024-03-07T07:50:17;61.70;;;26.77;;
11305;SDS011;5708;50.660;6.778;2024-03-07T07:52:44;53.38;;;26.35;;
11305;SDS011;5708;50.660;6.778;2024-03-07T07:55:11;47.05;;;24.60;;
11305;SDS011;5708;50.660;6.778;2024-03-07T07:57:45;49.45;;;25.75;;
11305;SDS011;5708;50.660;6.778;2024-03-07T08:00:17;47.63;;;24.02;;
11305;SDS011;5708;50.660;6.778;2024-03-07T08:02:51;49.67;;;22.65;;
11305;SDS011;5708;50.660;6.778;2024-03-07T08:05:21;43.17;;;22.25;;
11305;SDS011;5708;50.660;6.778;2024-03-07T08:07:50;44.80;;;22.30;;
11305;SDS011;5708;50.660;6.778;2024-03-07T08:10:18;42.63;;;22.13;;
11305;SDS011;5708;50.660;6.778;2024-03-07T08:12:44;41.33;;;21.20;;
11305;SDS011;5708;50.660;6.778;2024-03-07T08:15:11;44.72;;;21.85;;
11305;SDS011;5708;50.660;6.778;2024-03-07T08:17:39;45.42;;;21.55;;
11305;SDS011;5708;50.660;6.778;2024-03-07T08:20:08;44.47;;;22.05;;
11305;SDS011;5708;50.660;6.778;2024-03-07T08:22:46;41.28;;;21.77;;
11305;SDS011;5708;50.660;6.778;2024-03-07T08:25:12;41.15;;;22.33;;
11305;SDS011;5708;50.660;6.778;2024-03-07T08:27:39;40.10;;;20.77;;
11305;SDS011;5708;50.660;6.778;2024-03-07T08:30:06;36.20;;;20.33;;
11305;SDS011;5708;50.660;6.778;2024-03-07T08:32:36;39.40;;;21.17;;
11305;SDS011;5708;50.660;6.778;2024-03-07T08:35:02;36.10;;;20.85;;
11305;SDS011;5708;50.660;6.778;2024-03-07T08:37:32;40.10;;;20.35;;
11305;SDS011;5708;50.660;6.778;2024-03-07T08:39:59;32.75;;;19.25;;
11305;SDS011;5708;50.660;6.778;2024-03-07T08:42:26;34.50;;;17.95;;
11305;SDS011;5708;50.660;6.778;2024-03-07T08:44:52;32.45;;;19.42;;
11305;SDS011;5708;50.660;6.778;2024-03-07T08:47:17;39.28;;;20.92;;
11305;SDS011;5708;50.660;6.778;2024-03-07T08:49:43;33.15;;;19.35;;
11305;SDS011;5708;50.660;6.778;2024-03-07T08:52:08;33.83;;;18.55;;
11305;SDS011;5708;50.660;6.778;2024-03-07T08:54:33;35.30;;;18.60;;
11305;SDS011;5708;50.660;6.778;2024-03-07T08:56:58;33.65;;;18.63;;
11305;SDS011;5708;50.660;6.778;2024-03-07T08:59:24;35.63;;;20.05;;
11305;SDS011;5708;50.660;6.778;2024-03-07T09:01:49;33.42;;;19.02;;
11305;SDS011;5708;50.660;6.778;2024-03-07T09:04:15;33.33;;;18.15;;
11305;SDS011;5708;50.660;6.778;2024-03-07T09:06:42;33.33;;;19.27;;
11305;SDS011;5708;50.660;6.778;2024-03-07T09:09:08;30.65;;;17.05;;
11305;SDS011;5708;50.660;6.778;2024-03-07T09:11:34;29.70;;;17.52;;
11305;SDS011;5708;50.660;6.778;2024-03-07T09:14:01;29.42;;;16.42;;
11305;SDS011;5708;50.660;6.778;2024-03-07T09:16:27;31.08;;;16.92;;
11305;SDS011;5708;50.660;6.778;2024-03-07T09:18:52;29.10;;;16.63;;
11305;SDS011;5708;50.660;6.778;2024-03-07T09:21:17;29.88;;;16.92;;
11305;SDS011;5708;50.660;6.778;2024-03-07T09:23:42;36.97;;;17.90;;
11305;SDS011;5708;50.660;6.778;2024-03-07T09:26:08;31.60;;;16.95;;
11305;SDS011;5708;50.660;6.778;2024-03-07T09:28:33;30.55;;;17.38;;
11305;SDS011;5708;50.660;6.778;2024-03-07T09:30:59;33.10;;;16.70;;
11305;SDS011;5708;50.660;6.778;2024-03-07T09:33:24;27.35;;;16.00;;
11305;SDS011;5708;50.660;6.778;2024-03-07T09:35:49;27.30;;;16.63;;
11305;SDS011;5708;50.660;6.778;2024-03-07T09:38:15;28.63;;;16.67;;
11305;SDS011;5708;50.660;6.778;2024-03-07T09:40:40;28.23;;;16.45;;
11305;SDS011;5708;50.660;6.778;2024-03-07T09:43:06;29.30;;;17.20;;
11305;SDS011;5708;50.660;6.778;2024-03-07T09:45:34;29.13;;;16.35;;
11305;SDS011;5708;50.660;6.778;2024-03-07T09:48:00;27.65;;;16.50;;
11305;SDS011;5708;50.660;6.778;2024-03-07T09:50:28;30.77;;;16.27;;
11305;SDS011;5708;50.660;6.778;2024-03-07T09:52:54;27.38;;;15.60;;
11305;SDS011;5708;50.660;6.778;2024-03-07T09:55:20;28.10;;;16.02;;
11305;SDS011;5708;50.660;6.778;2024-03-07T09:57:47;24.10;;;12.77;;
11305;SDS011;5708;50.660;6.778;2024-03-07T10:00:13;28.27;;;15.18;;
11305;SDS011;5708;50.660;6.778;2024-03-07T10:02:59;29.77;;;16.35;;
11305;SDS011;5708;50.660;6.778;2024-03-07T10:05:27;27.20;;;15.68;;
11305;SDS011;5708;50.660;6.778;2024-03-07T10:07:53;26.50;;;15.85;;
11305;SDS011;5708;50.660;6.778;2024-03-07T10:10:21;35.30;;;16.83;;
11305;SDS011;5708;50.660;6.778;2024-03-07T10:12:48;29.00;;;16.55;;
11305;SDS011;5708;50.660;6.778;2024-03-07T10:15:15;38.13;;;17.02;;
11305;SDS011;5708;50.660;6.778;2024-03-07T10:17:42;29.35;;;16.08;;
11305;SDS011;5708;50.660;6.778;2024-03-07T10:20:08;29.85;;;16.00;;
11305;SDS011;5708;50.660;6.778;2024-03-07T10:22:38;29.05;;;15.77;;
11305;SDS011;5708;50.660;6.778;2024-03-07T10:25:07;31.40;;;16.35;;
11305;SDS011;5708;50.660;6.778;2024-03-07T10:27:33;29.77;;;15.93;;
11305;SDS011;5708;50.660;6.778;2024-03-07T10:30:01;26.95;;;15.73;;
11305;SDS011;5708;50.660;6.778;2024-03-07T10:32:30;27.40;;;15.45;;
11305;SDS011;5708;50.660;6.778;2024-03-07T10:34:57;31.38;;;16.02;;
11305;SDS011;5708;50.660;6.778;2024-03-07T10:37:23;27.88;;;16.67;;
11305;SDS011;5708;50.660;6.778;2024-03-07T10:39:50;28.05;;;15.88;;
11305;SDS011;5708;50.660;6.778;2024-03-07T10:42:16;29.13;;;16.45;;
11305;SDS011;5708;50.660;6.778;2024-03-07T10:44:47;30.38;;;16.45;;
11305;SDS011;5708;50.660;6.778;2024-03-07T10:47:17;30.17;;;16.80;;
11305;SDS011;5708;50.660;6.778;2024-03-07T10:50:19;28.35;;;16.48;;
11305;SDS011;5708;50.660;6.778;2024-03-07T10:52:43;26.45;;;16.27;;
11305;SDS011;5708;50.660;6.778;2024-03-07T10:55:34;27.63;;;17.02;;
11305;SDS011;5708;50.660;6.778;2024-03-07T11:01:04;27.20;;;16.08;;
11305;SDS011;5708;50.660;6.778;2024-03-07T11:03:34;30.55;;;17.25;;
11305;SDS011;5708;50.660;6.778;2024-03-07T11:06:03;30.67;;;16.95;;
11305;SDS011;5708;50.660;6.778;2024-03-07T11:08:36;25.83;;;15.82;;
11305;SDS011;5708;50.660;6.778;2024-03-07T11:11:02;29.38;;;16.98;;
11305;SDS011;5708;50.660;6.778;2024-03-07T11:13:29;31.58;;;17.00;;
11305;SDS011;5708;50.660;6.778;2024-03-07T11:15:55;28.00;;;16.85;;
11305;SDS011;5708;50.660;6.778;2024-03-07T11:18:24;28.98;;;16.90;;
11305;SDS011;5708;50.660;6.778;2024-03-07T11:20:49;30.70;;;17.38;;
11305;SDS011;5708;50.660;6.778;2024-03-07T11:26:10;28.85;;;17.02;;
11305;SDS011;5708;50.660;6.778;2024-03-07T11:28:39;30.20;;;17.02;;
11305;SDS011;5708;50.660;6.778;2024-03-07T11:31:07;32.17;;;17.98;;
11305;SDS011;5708;50.660;6.778;2024-03-07T11:34:11;32.70;;;16.40;;
11305;SDS011;5708;50.660;6.778;2024-03-07T11:36:44;32.75;;;17.33;;
11305;SDS011;5708;50.660;6.778;2024-03-07T11:42:25;28.73;;;15.70;;
11305;SDS011;5708;50.660;6.778;2024-03-07T11:44:51;32.88;;;15.75;;
11305;SDS011;5708;50.660;6.778;2024-03-07T11:47:23;33.95;;;16.83;;
11305;SDS011;5708;50.660;6.778;2024-03-07T11:49:50;28.70;;;15.93;;
11305;SDS011;5708;50.660;6.778;2024-03-07T11:52:17;27.33;;;16.65;;
11305;SDS011;5708;50.660;6.778;2024-03-07T11:54:43;28.38;;;16.48;;
11305;SDS011;5708;50.660;6.778;2024-03-07T11:57:12;28.60;;;16.48;;
11305;SDS011;5708;50.660;6.778;2024-03-07T11:59:44;28.15;;;15.73;;
11305;SDS011;5708;50.660;6.778;2024-03-07T12:02:11;27.08;;;16.30;;
11305;SDS011;5708;50.660;6.778;2024-03-07T12:04:39;29.02;;;16.90;;
11305;SDS011;5708;50.660;6.778;2024-03-07T12:07:05;32.58;;;15.18;;
11305;SDS011;5708;50.660;6.778;2024-03-07T12:09:31;27.02;;;15.95;;
11305;SDS011;5708;50.660;6.778;2024-03-07T12:11:56;28.02;;;15.75;;
11305;SDS011;5708;50.660;6.778;2024-03-07T12:14:24;28.25;;;15.60;;
11305;SDS011;5708;50.660;6.778;2024-03-07T12:16:49;28.70;;;17.05;;
11305;SDS011;5708;50.660;6.778;2024-03-07T12:19:17;30.10;;;16.67;;
11305;SDS011;5708;50.660;6.778;2024-03-07T12:21:46;26.23;;;15.23;;
11305;SDS011;5708;50.660;6.778;2024-03-07T12:24:12;28.80;;;16.60;;
11305;SDS011;5708;50.660;6.778;2024-03-07T12:26:38;27.35;;;15.50;;
11305;SDS011;5708;50.660;6.778;2024-03-07T12:29:07;30.98;;;18.00;;
11305;SDS011;5708;50.660;6.778;2024-03-07T12:31:36;30.98;;;18.95;;
11305;SDS011;5708;50.660;6.778;2024-03-07T12:34:05;29.58;;;16.77;;
11305;SDS011;5708;50.660;6.778;2024-03-07T12:36:31;34.30;;;20.02;;
11305;SDS011;5708;50.660;6.778;2024-03-07T12:39:03;28.75;;;17.85;;
11305;SDS011;5708;50.660;6.778;2024-03-07T12:41:49;26.30;;;16.40;;
11305;SDS011;5708;50.660;6.778;2024-03-07T12:44:18;25.85;;;15.50;;
11305;SDS011;5708;50.660;6.778;2024-03-07T12:46:47;24.85;;;15.30;;
11305;SDS011;5708;50.660;6.778;2024-03-07T12:49:24;28.92;;;16.23;;
11305;SDS011;5708;50.660;6.778;2024-03-07T12:51:55;25.45;;;15.57;;
11305;SDS011;5708;50.660;6.778;2024-03-07T12:54:24;23.17;;;13.73;;
11305;SDS011;5708;50.660;6.778;2024-03-07T12:56:49;24.35;;;14.77;;
11305;SDS011;5708;50.660;6.778;2024-03-07T12:59:15;22.02;;;13.48;;
11305;SDS011;5708;50.660;6.778;2024-03-07T13:01:41;20.80;;;13.60;;
11305;SDS011;5708;50.660;6.778;2024-03-07T13:04:10;23.27;;;14.20;;
11305;SDS011;5708;50.660;6.778;2024-03-07T13:06:36;25.45;;;14.65;;
11305;SDS011;5708;50.660;6.778;2024-03-07T13:09:01;26.13;;;15.02;;
11305;SDS011;5708;50.660;6.778;2024-03-07T13:11:28;21.70;;;13.98;;
11305;SDS011;5708;50.660;6.778;2024-03-07T13:13:57;23.13;;;14.73;;
11305;SDS011;5708;50.660;6.778;2024-03-07T13:16:22;24.67;;;14.05;;
11305;SDS011;5708;50.660;6.778;2024-03-07T13:18:52;25.27;;;14.88;;
11305;SDS011;5708;50.660;6.778;2024-03-07T13:21:19;23.55;;;15.40;;
11305;SDS011;5708;50.660;6.778;2024-03-07T13:23:45;23.20;;;13.98;;
11305;SDS011;5708;50.660;6.778;2024-03-07T13:26:11;25.90;;;14.95;;
11305;SDS011;5708;50.660;6.778;2024-03-07T13:28:42;22.45;;;14.27;;
11305;SDS011;5708;50.660;6.778;2024-03-07T13:31:09;22.20;;;14.35;;
11305;SDS011;5708;50.660;6.778;2024-03-07T13:33:36;27.42;;;14.55;;
11305;SDS011;5708;50.660;6.778;2024-03-07T13:36:02;24.30;;;14.75;;
11305;SDS011;5708;50.660;6.778;2024-03-07T13:38:28;25.13;;;13.40;;
11305;SDS011;5708;50.660;6.778;2024-03-07T13:40:57;23.90;;;14.05;;
11305;SDS011;5708;50.660;6.778;2024-03-07T13:43:23;25.77;;;15.10;;
11305;SDS011;5708;50.660;6.778;2024-03-07T13:45:48;22.70;;;13.63;;
11305;SDS011;5708;50.660;6.778;2024-03-07T13:48:14;25.98;;;14.70;;
11305;SDS011;5708;50.660;6.778;2024-03-07T13:50:41;24.52;;;14.48;;
11305;SDS011;5708;50.660;6.778;2024-03-07T13:53:09;24.42;;;13.57;;
11305;SDS011;5708;50.660;6.778;2024-03-07T13:55:45;23.55;;;14.20;;
11305;SDS011;5708;50.660;6.778;2024-03-07T13:58:13;18.75;;;10.85;;
11305;SDS011;5708;50.660;6.778;2024-03-07T14:00:57;22.08;;;12.50;;
11305;SDS011;5708;50.660;6.778;2024-03-07T14:20:54;19.83;;;11.77;;
11305;SDS011;5708;50.660;6.778;2024-03-07T14:29:05;20.63;;;11.38;;
11305;SDS011;5708;50.660;6.778;2024-03-07T14:31:47;18.83;;;11.32;;
11305;SDS011;5708;50.660;6.778;2024-03-07T14:36:48;19.35;;;11.30;;
11305;SDS011;5708;50.660;6.778;2024-03-07T14:39:18;16.90;;;9.85;;
11305;SDS011;5708;50.660;6.778;2024-03-07T14:41:49;19.65;;;10.30;;
11305;SDS011;5708;50.660;6.778;2024-03-07T14:44:17;17.15;;;9.90;;
11305;SDS011;5708;50.660;6.778;2024-03-07T14:46:43;16.83;;;9.85;;
11305;SDS011;5708;50.660;6.778;2024-03-07T14:49:14;17.63;;;10.40;;
11305;SDS011;5708;50.660;6.778;2024-03-07T14:51:41;17.38;;;9.35;;
11305;SDS011;5708;50.660;6.778;2024-03-07T14:54:07;19.05;;;10.25;;
11305;SDS011;5708;50.660;6.778;2024-03-07T14:56:33;19.02;;;10.65;;
11305;SDS011;5708;50.660;6.778;2024-03-07T14:58:59;16.23;;;10.05;;
11305;SDS011;5708;50.660;6.778;2024-03-07T15:01:26;17.75;;;10.60;;
11305;SDS011;5708;50.660;6.778;2024-03-07T15:03:52;18.33;;;10.77;;
11305;SDS011;5708;50.660;6.778;2024-03-07T15:06:18;20.30;;;10.90;;
11305;SDS011;5708;50.660;6.778;2024-03-07T15:08:45;21.17;;;11.25;;
11305;SDS011;5708;50.660;6.778;2024-03-07T15:11:21;19.23;;;11.05;;